الصفحة الرئيسية
صور السواتل توقعات الطقس لمدة 10 يوممناخالطقس البحري أعاصير برق مطارأسئلة وأجوبة الرسائل الإخبارية نبذة
طقس : أوروبا أفريقيا أمريكا الشمالية أمريكا الجنوبية آسيا أستراليا-أوقيانوسيا أخرى
لغات جهة اتصال

سكاكا, السعودية

مطار الجوف المحلي

دائرة عرض: 29-47N, خط طول: 040-06E, ارتفاع: 689 متر


METAR: OESK 191300Z 27010KT CAVOK 29/M07 Q1017 NOSIG
TAF: OESK 191030Z 1912/2018 30010KT CAVOK BECMG 1918/1920 VRB04KT

زمن: 17:04 (14:04 UTC)

مراقبة الطقس الحالي

تاريخ ووقت الإصدار 1ساعة و 4 دقيقة قبل الساعة 13:00UTC
ريح 10 عقدة من الغرب
درجة الحرارة 29°درجة مئوية
الرطوبة 9%
ضغط 1017 hPa
الرؤية 10 كم أو أكثر
الغيوم لا تقل 1500 م ولا وجود لمزنة ركامية السحاب الأسود

تغيير وحدة

توقعات

تاريخ ووقت الإصدار 3ساعات و 34 دقيقة قبل الساعة 10:30UTC
التوقعات صالحة من19 الساعة 12 UTC إلى 20 الساعة 18 UTC
ريح 10 عقدة من الغرب/الشمال الغربي
الرؤية 10 كم أو أكثر
الغيوم لا تقل 1500 م ولا وجود لمزنة ركامية السحاب الأسود
أصبح
من 19 الساعة 18 UTC إلى 19 الساعة 20 UTC
ريح 4 عقدةمن اتجاهات متغيرة
المعلومات الواردة في هذا الموقع يخضع لـإخلاء مسؤولية
طقس : أوروبا أفريقيا أمريكا الشمالية أمريكا الجنوبية آسيا أستراليا-أوقيانوسيا أخرى
صور السواتل توقعات الطقس لمدة 10 يوممناخالطقس البحري أعاصير برق مطارأسئلة وأجوبة لغات جهة اتصال الرسائل الإخبارية نبذة